createdAt,value
2023-03-02T00:00:05.155Z,52.37
2023-03-02T00:01:05.108Z,54.14
2023-03-02T00:02:05.106Z,51.40
2023-03-02T00:03:05.081Z,53.17
2023-03-02T00:04:05.044Z,52.05
2023-03-02T00:05:05.389Z,52.05
2023-03-02T00:06:04.959Z,52.05
2023-03-02T00:07:05.019Z,51.56
2023-03-02T00:08:04.986Z,51.88
2023-03-02T00:09:04.969Z,52.69
2023-03-02T00:10:04.999Z,52.37
2023-03-02T00:11:05.000Z,53.50
2023-03-02T00:12:04.933Z,51.72
2023-03-02T00:13:05.026Z,52.21
2023-03-02T00:14:05.102Z,51.24
2023-03-02T00:15:04.993Z,52.05
2023-03-02T00:16:26.275Z,52.53
2023-03-02T00:17:04.952Z,53.66
2023-03-02T00:18:05.104Z,54.46
2023-03-02T00:19:04.916Z,52.85
2023-03-02T00:20:05.181Z,53.33
2023-03-02T00:21:04.971Z,51.40
2023-03-02T00:22:05.004Z,52.05
2023-03-02T00:23:04.926Z,52.37
2023-03-02T00:24:04.942Z,52.37
2023-03-02T00:25:04.963Z,53.33
2023-03-02T00:26:04.876Z,53.33
2023-03-02T00:27:04.971Z,54.30
2023-03-02T00:28:22.226Z,52.37
2023-03-02T00:29:04.852Z,53.01
2023-03-02T00:30:04.925Z,53.82
2023-03-02T00:31:04.952Z,53.82
2023-03-02T00:32:04.897Z,53.01
2023-03-02T00:33:04.958Z,53.50
2023-03-02T00:34:04.888Z,53.17
2023-03-02T00:35:04.779Z,52.69
2023-03-02T00:36:04.861Z,51.72
2023-03-02T00:37:04.792Z,52.05
2023-03-02T00:38:04.821Z,52.37
2023-03-02T00:39:04.822Z,52.85
2023-03-02T00:40:04.773Z,52.05
2023-03-02T00:41:04.763Z,51.56
2023-03-02T00:42:04.754Z,52.21
2023-03-02T00:43:04.729Z,53.50
2023-03-02T00:44:04.784Z,53.17
2023-03-02T00:45:04.748Z,52.85
2023-03-02T00:46:04.668Z,51.56
2023-03-02T00:47:04.755Z,53.01
2023-03-02T00:48:04.680Z,51.88
2023-03-02T00:49:04.825Z,51.88
2023-03-02T00:50:04.778Z,52.69
2023-03-02T00:51:04.678Z,52.69
2023-03-02T00:52:04.754Z,52.85
2023-03-02T00:53:04.767Z,54.30
2023-03-02T00:54:04.648Z,52.53
2023-03-02T00:55:04.766Z,52.37
2023-03-02T00:56:04.750Z,52.69
2023-03-02T00:57:04.695Z,53.01
2023-03-02T00:58:04.725Z,53.01
2023-03-02T00:59:04.722Z,53.98
2023-03-02T01:00:04.701Z,52.37
2023-03-02T01:01:04.718Z,52.05
2023-03-02T01:02:04.796Z,51.40
2023-03-02T01:03:04.833Z,52.69
2023-03-02T01:04:04.754Z,52.37
2023-03-02T01:05:04.727Z,53.98
2023-03-02T01:06:04.771Z,51.72
2023-03-02T01:07:04.665Z,53.66
2023-03-02T01:08:04.785Z,54.30
2023-03-02T01:09:04.677Z,52.85
2023-03-02T01:10:04.553Z,52.85
2023-03-02T01:11:04.784Z,53.01
2023-03-02T01:12:04.582Z,52.37
2023-03-02T01:13:04.555Z,53.01
2023-03-02T01:14:04.655Z,53.01
2023-03-02T01:15:04.528Z,52.37
2023-03-02T01:16:04.583Z,53.50
2023-03-02T01:17:04.614Z,53.98
2023-03-02T01:18:04.514Z,53.33
2023-03-02T01:19:04.530Z,53.98
2023-03-02T01:20:04.608Z,53.17
2023-03-02T01:21:04.613Z,57.69
2023-03-02T01:22:04.578Z,52.53
2023-03-02T01:23:04.607Z,53.01
2023-03-02T01:24:04.584Z,54.62
2023-03-02T01:25:04.631Z,54.95
2023-03-02T01:26:04.557Z,54.79
2023-03-02T01:27:04.495Z,53.50
2023-03-02T01:28:04.563Z,51.72
2023-03-02T01:29:04.608Z,52.37
2023-03-02T01:30:04.430Z,53.33
2023-03-02T01:31:04.835Z,52.85
2023-03-02T01:32:04.560Z,53.66
2023-03-02T01:33:04.414Z,53.66
2023-03-02T01:34:04.530Z,52.85
2023-03-02T01:35:04.504Z,53.82
2023-03-02T01:36:04.434Z,52.69
2023-03-02T01:37:04.447Z,52.21
2023-03-02T01:38:04.621Z,53.50
2023-03-02T01:39:04.370Z,53.82
2023-03-02T01:40:04.461Z,54.62
2023-03-02T01:41:04.447Z,52.37
2023-03-02T01:42:04.322Z,53.33
2023-03-02T01:43:04.479Z,52.69
2023-03-02T01:44:04.443Z,52.53
2023-03-02T01:45:04.364Z,53.17
2023-03-02T01:46:04.494Z,54.95
2023-03-02T01:47:04.320Z,53.66
2023-03-02T01:48:04.326Z,53.82
2023-03-02T01:49:04.336Z,53.50
2023-03-02T01:50:04.295Z,53.82
2023-03-02T01:51:04.317Z,53.98
2023-03-02T01:52:04.290Z,53.66
2023-03-02T01:53:04.803Z,53.50
2023-03-02T01:54:05.313Z,53.01
2023-03-02T01:55:04.261Z,54.46
2023-03-02T01:56:04.463Z,53.50
2023-03-02T01:57:04.358Z,53.17
2023-03-02T01:58:04.360Z,54.95
2023-03-02T01:59:04.400Z,54.14
2023-03-02T02:00:04.361Z,54.79
2023-03-02T02:01:04.420Z,53.50
2023-03-02T02:02:04.319Z,54.95
2023-03-02T02:03:04.255Z,53.50
2023-03-02T02:04:04.384Z,53.33
2023-03-02T02:05:04.330Z,57.20
2023-03-02T02:06:04.207Z,54.46
2023-03-02T02:07:04.286Z,54.30
2023-03-02T02:08:04.265Z,53.33
2023-03-02T02:09:04.209Z,52.85
2023-03-02T02:10:04.284Z,53.17
2023-03-02T02:11:04.266Z,54.14
2023-03-02T02:12:04.186Z,52.85
2023-03-02T02:13:04.160Z,53.17
2023-03-02T02:14:04.125Z,54.30
2023-03-02T02:15:04.134Z,53.82
2023-03-02T02:16:04.536Z,55.11
2023-03-02T02:17:04.096Z,53.66
2023-03-02T02:18:04.123Z,52.85
2023-03-02T02:19:04.247Z,53.50
2023-03-02T02:20:04.202Z,55.11
2023-03-02T02:21:04.172Z,53.33
2023-03-02T02:22:04.181Z,54.14
2023-03-02T02:23:04.178Z,54.46
2023-03-02T02:24:04.068Z,54.14
2023-03-02T02:25:04.153Z,53.66
2023-03-02T02:26:04.173Z,53.50
2023-03-02T02:27:04.121Z,53.66
2023-03-02T02:28:04.164Z,53.50
2023-03-02T02:29:04.118Z,53.17
2023-03-02T02:30:04.050Z,53.01
2023-03-02T02:31:04.124Z,53.82
2023-03-02T02:32:04.246Z,54.14
2023-03-02T02:33:03.992Z,53.82
2023-03-02T02:34:04.097Z,53.01
2023-03-02T02:35:04.099Z,54.95
2023-03-02T02:36:04.110Z,52.37
2023-03-02T02:37:04.103Z,53.01
2023-03-02T02:38:04.097Z,53.33
2023-03-02T02:39:04.146Z,56.24
2023-03-02T02:40:03.971Z,55.27
2023-03-02T02:41:03.967Z,55.75
2023-03-02T02:42:03.952Z,53.33
2023-03-02T02:43:03.994Z,53.66
2023-03-02T02:44:03.945Z,54.14
2023-03-02T02:45:03.918Z,53.82
2023-03-02T02:46:03.982Z,53.50
2023-03-02T02:47:03.910Z,53.01
2023-03-02T02:48:03.927Z,54.14
2023-03-02T02:49:03.904Z,53.66
2023-03-02T02:50:03.973Z,53.82
2023-03-02T02:51:03.980Z,56.88
2023-03-02T02:52:03.907Z,54.30
2023-03-02T02:53:04.080Z,54.95
2023-03-02T02:54:22.758Z,54.95
2023-03-02T02:55:03.886Z,53.17
2023-03-02T02:56:03.998Z,53.17
2023-03-02T02:57:04.037Z,54.62
2023-03-02T02:58:03.845Z,53.01
2023-03-02T02:59:03.953Z,54.46
2023-03-02T03:00:03.942Z,55.59
2023-03-02T03:01:03.859Z,54.30
2023-03-02T03:02:03.899Z,55.11
2023-03-02T03:03:03.945Z,54.62
2023-03-02T03:04:03.873Z,53.98
2023-03-02T03:05:04.002Z,53.01
2023-03-02T03:06:03.913Z,53.50
2023-03-02T03:07:03.791Z,53.98
2023-03-02T03:08:03.841Z,53.82
2023-03-02T03:09:04.017Z,54.62
2023-03-02T03:10:03.797Z,53.50
2023-03-02T03:11:03.876Z,52.85
2023-03-02T03:12:03.861Z,52.85
2023-03-02T03:13:03.739Z,52.85
2023-03-02T03:14:03.837Z,53.33
2023-03-02T03:15:03.941Z,55.75
2023-03-02T03:16:03.729Z,54.46
2023-03-02T03:17:03.963Z,55.27
2023-03-02T03:18:03.739Z,55.27
2023-03-02T03:19:03.723Z,54.30
2023-03-02T03:20:04.257Z,54.62
2023-03-02T03:21:03.756Z,53.50
2023-03-02T03:22:03.698Z,53.50
2023-03-02T03:23:03.658Z,55.27
2023-03-02T03:24:03.705Z,53.66
2023-03-02T03:25:03.666Z,53.01
2023-03-02T03:26:03.720Z,53.17
2023-03-02T03:27:03.736Z,54.14
2023-03-02T03:28:03.802Z,57.20
2023-03-02T03:29:03.742Z,53.50
2023-03-02T03:30:03.795Z,54.30
2023-03-02T03:31:03.703Z,53.98
2023-03-02T03:32:03.833Z,55.91
2023-03-02T03:33:03.695Z,54.30
2023-03-02T03:34:03.589Z,54.95
2023-03-02T03:35:03.669Z,54.62
2023-03-02T03:36:04.794Z,54.79
2023-03-02T03:37:03.577Z,57.20
2023-03-02T03:38:03.734Z,54.62
2023-03-02T03:39:03.672Z,53.98
2023-03-02T03:40:03.566Z,55.59
2023-03-02T03:41:03.776Z,55.43
2023-03-02T03:42:03.684Z,55.91
2023-03-02T03:43:03.540Z,58.33
2023-03-02T03:44:03.527Z,54.95
2023-03-02T03:45:03.534Z,56.24
2023-03-02T03:46:03.591Z,55.43
2023-03-02T03:47:03.549Z,54.79
2023-03-02T03:48:03.498Z,57.52
2023-03-02T03:49:03.463Z,54.95
2023-03-02T03:50:37.702Z,55.75
2023-03-02T03:51:34.554Z,57.85
2023-03-02T03:52:03.565Z,56.88
2023-03-02T03:53:04.022Z,55.75
2023-03-02T03:54:04.441Z,54.79
2023-03-02T03:55:03.615Z,57.85
2023-03-02T03:56:22.320Z,56.88
2023-03-02T03:57:03.418Z,58.33
2023-03-02T03:58:03.463Z,54.79
2023-03-02T03:59:03.652Z,55.43
2023-03-02T04:00:03.429Z,56.88
2023-03-02T04:01:04.455Z,56.40
2023-03-02T04:02:03.550Z,57.04
2023-03-02T04:03:03.457Z,58.33
2023-03-02T04:04:03.424Z,56.56
2023-03-02T04:05:03.464Z,56.07
2023-03-02T04:06:03.443Z,59.78
2023-03-02T04:07:03.469Z,58.97
2023-03-02T04:08:03.473Z,58.49
2023-03-02T04:09:03.400Z,58.01
2023-03-02T04:10:03.509Z,56.24
2023-03-02T04:11:03.455Z,55.91
2023-03-02T04:12:03.365Z,57.69
2023-03-02T04:13:03.469Z,59.14
2023-03-02T04:14:03.495Z,56.88
2023-03-02T04:15:03.361Z,58.01
2023-03-02T04:16:03.489Z,55.75
2023-03-02T04:17:03.297Z,56.56
2023-03-02T04:18:03.330Z,59.94
2023-03-02T04:19:03.305Z,57.36
2023-03-02T04:20:03.549Z,56.72
2023-03-02T04:21:03.308Z,57.04
2023-03-02T04:22:03.272Z,56.88
2023-03-02T04:23:03.264Z,59.14
2023-03-02T04:24:03.262Z,58.65
2023-03-02T04:25:09.369Z,58.01
2023-03-02T04:26:09.170Z,57.52
2023-03-02T04:27:03.279Z,59.62
2023-03-02T04:28:03.332Z,59.94
2023-03-02T04:29:03.252Z,60.10
2023-03-02T04:30:03.236Z,58.49
2023-03-02T04:31:03.456Z,57.52
2023-03-02T04:32:03.309Z,58.17
2023-03-02T04:33:03.239Z,59.30
2023-03-02T04:34:03.310Z,60.10
2023-03-02T04:35:03.188Z,59.14
2023-03-02T04:36:03.285Z,58.97
2023-03-02T04:37:03.299Z,60.59
2023-03-02T04:38:03.177Z,56.88
2023-03-02T04:39:03.188Z,60.75
2023-03-02T04:40:03.295Z,57.20
2023-03-02T04:41:03.160Z,59.62
2023-03-02T04:42:03.226Z,60.10
2023-03-02T04:43:03.317Z,59.30
2023-03-02T04:44:03.190Z,58.97
2023-03-02T04:45:03.128Z,57.69
2023-03-02T04:46:03.271Z,57.20
2023-03-02T04:47:03.203Z,58.97
2023-03-02T04:48:03.152Z,57.52
2023-03-02T04:49:03.342Z,57.85
2023-03-02T04:50:03.142Z,57.85
2023-03-02T04:51:03.105Z,58.01
2023-03-02T04:52:03.296Z,59.94
2023-03-02T04:53:03.094Z,59.30
2023-03-02T04:54:03.091Z,58.01
2023-03-02T04:55:04.300Z,58.49
2023-03-02T04:56:03.136Z,59.14
2023-03-02T04:57:03.080Z,58.81
2023-03-02T04:58:03.243Z,59.46
2023-03-02T04:59:03.077Z,58.97
2023-03-02T05:00:22.882Z,57.52
2023-03-02T05:01:04.052Z,57.69
2023-03-02T05:02:03.060Z,57.04
2023-03-02T05:03:03.099Z,60.42
2023-03-02T05:04:03.236Z,58.97
2023-03-02T05:05:04.023Z,59.14
2023-03-02T05:06:03.035Z,58.81
2023-03-02T05:07:03.134Z,58.33
2023-03-02T05:08:02.997Z,58.17
2023-03-02T05:09:03.053Z,59.46
2023-03-02T05:10:03.185Z,60.42
2023-03-02T05:11:02.974Z,60.42
2023-03-02T05:12:02.978Z,61.07
2023-03-02T05:13:03.098Z,57.85
2023-03-02T05:14:03.014Z,58.81
2023-03-02T05:15:02.977Z,59.46
2023-03-02T05:16:03.052Z,59.14
2023-03-02T05:17:02.964Z,59.62
2023-03-02T05:18:02.935Z,59.14
2023-03-02T05:19:02.962Z,60.59
2023-03-02T05:20:02.946Z,58.81
2023-03-02T05:21:02.934Z,58.81
2023-03-02T05:22:02.924Z,59.46
2023-03-02T05:23:02.894Z,59.14
2023-03-02T05:24:02.941Z,58.81
2023-03-02T05:25:04.723Z,60.26
2023-03-02T05:26:03.901Z,58.01
2023-03-02T05:27:02.905Z,58.17
2023-03-02T05:28:02.884Z,59.62
2023-03-02T05:29:02.888Z,59.14
2023-03-02T05:30:02.864Z,59.30
2023-03-02T05:31:03.305Z,58.33
2023-03-02T05:32:02.858Z,59.14
2023-03-02T05:33:02.922Z,57.69
2023-03-02T05:34:02.848Z,58.33
2023-03-02T05:35:02.845Z,60.42
2023-03-02T05:36:02.914Z,58.17
2023-03-02T05:37:02.839Z,58.33
2023-03-02T05:38:02.822Z,57.52
2023-03-02T05:39:02.814Z,60.91
2023-03-02T05:40:02.853Z,60.10
2023-03-02T05:41:02.969Z,58.81
2023-03-02T05:42:02.818Z,58.33
2023-03-02T05:43:02.823Z,60.26
2023-03-02T05:44:02.912Z,58.97
2023-03-02T05:45:02.768Z,59.94
2023-03-02T05:46:02.891Z,59.78
2023-03-02T05:47:02.830Z,61.55
2023-03-02T05:48:02.836Z,58.97
2023-03-02T05:49:02.754Z,59.94
2023-03-02T05:50:02.757Z,58.01
2023-03-02T05:51:02.758Z,60.42
2023-03-02T05:52:02.747Z,60.75
2023-03-02T05:53:02.726Z,60.75
2023-03-02T05:54:02.708Z,60.59
2023-03-02T05:55:02.728Z,62.04
2023-03-02T05:56:02.693Z,59.30
2023-03-02T05:57:02.712Z,60.26
2023-03-02T05:58:02.717Z,60.59
2023-03-02T05:59:02.685Z,63.00
2023-03-02T06:00:02.643Z,64.29
2023-03-02T06:01:02.644Z,62.36
2023-03-02T06:02:02.764Z,62.84
2023-03-02T06:03:02.747Z,62.20
2023-03-02T06:04:02.647Z,63.33
2023-03-02T06:05:02.637Z,62.04
2023-03-02T06:06:02.723Z,63.49
2023-03-02T06:07:02.718Z,62.20
2023-03-02T06:08:02.637Z,62.36
2023-03-02T06:09:02.819Z,63.49
2023-03-02T06:10:02.736Z,65.10
2023-03-02T06:11:02.619Z,65.26
2023-03-02T06:12:02.712Z,63.65
2023-03-02T06:13:02.687Z,61.87
2023-03-02T06:14:02.645Z,60.59
2023-03-02T06:15:02.696Z,61.71
2023-03-02T06:16:02.688Z,60.10
2023-03-02T06:17:02.591Z,62.52
2023-03-02T06:18:02.586Z,62.20
2023-03-02T06:19:02.559Z,63.00
2023-03-02T06:20:02.629Z,61.55
2023-03-02T06:21:02.541Z,63.00
2023-03-02T06:22:02.670Z,61.71
2023-03-02T06:23:05.419Z,62.04
2023-03-02T06:24:02.734Z,61.55
2023-03-02T06:25:02.592Z,61.23
2023-03-02T06:26:02.512Z,62.04
2023-03-02T06:27:02.699Z,63.65
2023-03-02T06:28:02.602Z,64.78
2023-03-02T06:29:02.537Z,63.97
2023-03-02T06:30:02.670Z,63.00
2023-03-02T06:31:02.504Z,63.81
2023-03-02T06:32:02.732Z,62.36
2023-03-02T06:33:02.580Z,63.81
2023-03-02T06:34:02.483Z,62.20
2023-03-02T06:35:03.824Z,62.84
2023-03-02T06:36:02.750Z,62.20
2023-03-02T06:37:02.458Z,63.00
2023-03-02T06:38:02.456Z,62.36
2023-03-02T06:39:02.617Z,64.29
2023-03-02T06:40:02.421Z,64.61
2023-03-02T06:41:02.496Z,62.84
2023-03-02T06:42:02.559Z,65.90
2023-03-02T06:43:04.216Z,63.16
2023-03-02T06:44:03.570Z,66.55
2023-03-02T06:45:02.514Z,62.68
2023-03-02T06:46:02.526Z,63.00
2023-03-02T06:47:02.529Z,65.42
2023-03-02T06:48:02.538Z,64.78
2023-03-02T06:49:02.357Z,64.45
2023-03-02T06:50:02.378Z,64.61
2023-03-02T06:51:02.361Z,63.49
2023-03-02T06:52:02.386Z,65.10
2023-03-02T06:53:02.360Z,62.52
2023-03-02T06:54:02.326Z,61.55
2023-03-02T06:55:02.396Z,62.68
2023-03-02T06:56:02.330Z,62.04
2023-03-02T06:57:02.435Z,62.36
2023-03-02T06:58:02.375Z,63.16
2023-03-02T06:59:02.318Z,62.68
2023-03-02T07:00:02.307Z,63.97
2023-03-02T07:01:02.345Z,61.87
2023-03-02T07:02:02.283Z,61.23
2023-03-02T07:03:02.339Z,61.07
2023-03-02T07:04:02.446Z,61.71
2023-03-02T07:05:02.443Z,65.42
2023-03-02T07:06:02.293Z,62.52
2023-03-02T07:07:02.390Z,61.55
2023-03-02T07:08:02.392Z,63.16
2023-03-02T07:09:02.260Z,61.07
2023-03-02T07:10:02.385Z,61.39
2023-03-02T07:11:02.338Z,62.20
2023-03-02T07:12:02.253Z,62.52
2023-03-02T07:13:02.193Z,60.91
2023-03-02T07:14:02.379Z,60.75
2023-03-02T07:15:02.249Z,61.23
2023-03-02T07:16:02.381Z,63.16
2023-03-02T07:17:02.446Z,64.61
2023-03-02T07:18:02.199Z,63.65
2023-03-02T07:19:02.265Z,62.20
2023-03-02T07:20:02.290Z,63.16
2023-03-02T07:21:02.186Z,62.36
2023-03-02T07:22:02.179Z,60.75
2023-03-02T07:23:02.287Z,61.71
2023-03-02T07:24:02.121Z,63.33
2023-03-02T07:25:02.203Z,63.97
2023-03-02T07:26:03.234Z,60.59
2023-03-02T07:27:02.093Z,60.42
2023-03-02T07:28:02.136Z,60.42
2023-03-02T07:29:02.234Z,60.10
2023-03-02T07:30:02.177Z,61.39
2023-03-02T07:31:02.172Z,62.36
2023-03-02T07:32:02.256Z,61.55
2023-03-02T07:33:02.073Z,60.10
2023-03-02T07:34:02.083Z,57.52
2023-03-02T07:35:02.304Z,58.81
2023-03-02T07:36:02.181Z,59.14
2023-03-02T07:37:02.080Z,61.23
2023-03-02T07:38:02.238Z,62.20
2023-03-02T07:39:02.056Z,61.87
2023-03-02T07:40:02.034Z,60.42
2023-03-02T07:41:02.398Z,60.26
2023-03-02T07:42:02.034Z,61.23
2023-03-02T07:43:02.049Z,58.33
2023-03-02T07:44:02.117Z,59.30
2023-03-02T07:45:02.025Z,61.07
2023-03-02T07:46:02.157Z,58.81
2023-03-02T07:47:02.100Z,60.75
2023-03-02T07:48:01.991Z,61.23
2023-03-02T07:49:01.969Z,60.91
2023-03-02T07:50:02.008Z,58.33
2023-03-02T07:51:01.951Z,58.65
2023-03-02T07:52:02.020Z,60.91
2023-03-02T07:53:01.936Z,60.75
2023-03-02T07:54:01.985Z,62.36
2023-03-02T07:55:01.991Z,60.91
2023-03-02T07:56:01.992Z,61.07
2023-03-02T07:57:01.992Z,61.07
2023-03-02T07:58:01.937Z,61.71
2023-03-02T07:59:01.920Z,59.78
2023-03-02T08:00:01.986Z,59.94
2023-03-02T08:01:01.914Z,59.46
2023-03-02T08:02:01.991Z,61.07
2023-03-02T08:03:09.866Z,60.10
2023-03-02T08:04:01.884Z,59.62
2023-03-02T08:05:02.118Z,60.10
2023-03-02T08:06:02.001Z,58.97
2023-03-02T08:07:02.058Z,61.23
2023-03-02T08:08:01.996Z,57.52
2023-03-02T08:09:01.872Z,57.52
2023-03-02T08:10:01.978Z,58.49
2023-03-02T08:11:01.894Z,58.49
2023-03-02T08:12:01.924Z,59.30
2023-03-02T08:13:01.936Z,60.26
2023-03-02T08:14:01.956Z,60.75
2023-03-02T08:15:03.733Z,58.01
2023-03-02T08:16:02.841Z,59.46
2023-03-02T08:17:01.905Z,60.42
2023-03-02T08:18:01.841Z,58.17
2023-03-02T08:19:01.872Z,57.20
2023-03-02T08:20:01.847Z,59.46
2023-03-02T08:21:01.870Z,58.97
2023-03-02T08:22:01.928Z,57.85
2023-03-02T08:23:01.868Z,58.01
2023-03-02T08:24:02.046Z,57.36
2023-03-02T08:25:01.787Z,58.17
2023-03-02T08:26:01.929Z,56.40
2023-03-02T08:27:01.747Z,58.01
2023-03-02T08:28:01.779Z,58.17
2023-03-02T08:29:01.757Z,57.04
2023-03-02T08:30:01.811Z,59.46
2023-03-02T08:31:01.690Z,58.81
2023-03-02T08:32:01.818Z,57.04
2023-03-02T08:33:05.912Z,56.07
2023-03-02T08:34:03.685Z,58.17
2023-03-02T08:35:01.812Z,56.40
2023-03-02T08:36:01.756Z,56.56
2023-03-02T08:37:01.696Z,57.52
2023-03-02T08:38:01.703Z,60.75
2023-03-02T08:39:01.730Z,61.55
2023-03-02T08:40:01.703Z,58.33
2023-03-02T08:41:02.137Z,57.04
2023-03-02T08:42:01.748Z,57.69
2023-03-02T08:43:01.668Z,57.69
2023-03-02T08:44:01.722Z,57.85
2023-03-02T08:45:01.789Z,51.08
2023-03-02T08:46:02.176Z,51.40
2023-03-02T08:47:01.813Z,55.91
2023-03-02T08:48:01.743Z,57.52
2023-03-02T08:49:01.612Z,53.01
2023-03-02T08:50:01.695Z,53.50
2023-03-02T08:51:17.055Z,55.11
2023-03-02T08:52:01.629Z,57.36
2023-03-02T08:53:01.764Z,53.50
2023-03-02T08:54:01.706Z,58.17
2023-03-02T08:55:03.889Z,50.92
2023-03-02T08:56:02.645Z,51.40
2023-03-02T08:57:01.654Z,54.79
2023-03-02T08:58:01.563Z,51.40
2023-03-02T08:59:01.626Z,55.11
2023-03-02T09:00:01.622Z,54.46
2023-03-02T09:01:01.583Z,55.75
2023-03-02T09:02:01.616Z,51.56
2023-03-02T09:03:01.664Z,53.33
2023-03-02T09:04:01.563Z,55.75
2023-03-02T09:05:01.504Z,56.24
2023-03-02T09:06:01.449Z,55.27
2023-03-02T09:07:01.527Z,52.85
2023-03-02T09:08:01.579Z,53.82
2023-03-02T09:09:01.480Z,56.56
2023-03-02T09:10:01.431Z,53.50
2023-03-02T09:11:01.548Z,53.01
2023-03-02T09:12:01.448Z,52.53
2023-03-02T09:13:01.439Z,54.14
2023-03-02T09:14:01.447Z,53.98
2023-03-02T09:15:01.386Z,54.62
2023-03-02T09:16:01.377Z,52.53
2023-03-02T09:17:01.577Z,53.98
2023-03-02T09:18:01.477Z,56.40
2023-03-02T09:19:01.593Z,55.27
2023-03-02T09:20:02.539Z,54.95
2023-03-02T09:21:01.440Z,52.05
2023-03-02T09:22:01.367Z,53.82
2023-03-02T09:23:01.409Z,51.24
2023-03-02T09:24:01.480Z,50.92
2023-03-02T09:25:01.457Z,54.79
2023-03-02T09:26:01.405Z,54.79
2023-03-02T09:27:01.487Z,50.11
2023-03-02T09:28:01.304Z,53.01
2023-03-02T09:29:01.461Z,49.79
2023-03-02T09:30:01.427Z,53.50
2023-03-02T09:31:01.314Z,51.40
2023-03-02T09:32:01.561Z,54.30
2023-03-02T09:33:01.522Z,50.60
2023-03-02T09:34:01.255Z,50.92
2023-03-02T09:35:01.300Z,50.27
2023-03-02T09:36:01.591Z,50.27
2023-03-02T09:37:01.261Z,52.05
2023-03-02T09:38:01.363Z,47.86
2023-03-02T09:39:01.331Z,47.86
2023-03-02T09:40:01.262Z,50.92
2023-03-02T09:41:01.379Z,48.66
2023-03-02T09:42:01.334Z,49.63
2023-03-02T09:43:01.225Z,49.31
2023-03-02T09:44:01.284Z,53.50
2023-03-02T09:45:01.278Z,52.53
2023-03-02T09:46:01.254Z,49.31
2023-03-02T09:47:01.640Z,50.60
2023-03-02T09:48:01.339Z,48.18
2023-03-02T09:49:03.147Z,49.31
2023-03-02T09:50:02.221Z,51.24
2023-03-02T09:51:01.307Z,50.76
2023-03-02T09:52:01.166Z,50.27
2023-03-02T09:53:01.267Z,51.40
2023-03-02T09:54:01.132Z,52.53
2023-03-02T09:55:01.134Z,52.69
2023-03-02T09:56:01.145Z,49.79
2023-03-02T09:57:01.140Z,48.18
2023-03-02T09:58:01.181Z,49.47
2023-03-02T09:59:01.101Z,51.08
2023-03-02T10:00:06.799Z,53.33
2023-03-02T10:01:03.157Z,50.60
2023-03-02T10:02:01.062Z,51.40
2023-03-02T10:03:14.733Z,55.91
2023-03-02T10:04:03.307Z,54.46
2023-03-02T10:05:01.079Z,52.53
2023-03-02T10:06:01.203Z,52.05
2023-03-02T10:07:01.073Z,50.11
2023-03-02T10:08:01.125Z,50.92
2023-03-02T10:09:01.195Z,52.37
2023-03-02T10:10:01.048Z,52.37
2023-03-02T10:11:01.145Z,51.24
2023-03-02T10:12:01.113Z,49.95
2023-03-02T10:13:01.024Z,52.05
2023-03-02T10:14:01.161Z,55.27
2023-03-02T10:15:01.153Z,54.95
2023-03-02T10:16:01.037Z,51.72
2023-03-02T10:17:01.138Z,52.85
2023-03-02T10:18:01.089Z,53.50
2023-03-02T10:19:01.627Z,53.50
2023-03-02T10:20:01.106Z,51.40
2023-03-02T10:21:01.143Z,56.07
2023-03-02T10:22:00.920Z,55.75
2023-03-02T10:23:01.019Z,56.40
2023-03-02T10:24:01.002Z,55.43
2023-03-02T10:25:00.991Z,53.33
2023-03-02T10:26:00.912Z,54.14
2023-03-02T10:27:00.926Z,52.53
2023-03-02T10:28:00.930Z,53.50
2023-03-02T10:29:00.926Z,53.33
2023-03-02T10:30:01.080Z,51.88
2023-03-02T10:31:00.911Z,49.63
2023-03-02T10:32:01.140Z,53.17
2023-03-02T10:33:00.925Z,54.79
2023-03-02T10:34:00.897Z,52.85
2023-03-02T10:35:01.003Z,53.50
2023-03-02T10:36:01.105Z,51.24
2023-03-02T10:37:00.875Z,51.40
2023-03-02T10:38:00.972Z,51.72
2023-03-02T10:39:00.957Z,53.33
2023-03-02T10:40:01.033Z,49.95
2023-03-02T10:41:01.017Z,50.27
2023-03-02T10:42:01.028Z,53.66
2023-03-02T10:43:00.814Z,52.53
2023-03-02T10:44:00.961Z,52.37
2023-03-02T10:45:00.966Z,55.27
2023-03-02T10:46:00.932Z,53.82
2023-03-02T10:47:01.327Z,52.21
2023-03-02T10:48:00.935Z,51.72
2023-03-02T10:49:00.824Z,52.05
2023-03-02T10:50:00.840Z,50.11
2023-03-02T10:51:00.857Z,49.79
2023-03-02T10:52:01.051Z,54.95
2023-03-02T10:53:02.535Z,52.53
2023-03-02T10:54:01.902Z,52.69
2023-03-02T10:55:00.725Z,51.72
2023-03-02T10:56:00.733Z,54.14
2023-03-02T10:57:00.786Z,55.11
2023-03-02T10:58:00.847Z,52.85
2023-03-02T10:59:00.671Z,53.33
2023-03-02T11:00:00.723Z,51.72
2023-03-02T11:01:00.685Z,53.50
2023-03-02T11:02:00.888Z,53.01
2023-03-02T11:03:00.764Z,51.56
2023-03-02T11:04:00.701Z,50.92
2023-03-02T11:05:00.738Z,50.11
2023-03-02T11:06:00.818Z,51.24
2023-03-02T11:07:00.688Z,49.63
2023-03-02T11:08:00.972Z,50.27
2023-03-02T11:09:00.964Z,53.50
2023-03-02T11:10:00.662Z,50.92
2023-03-02T11:11:01.425Z,55.59
2023-03-02T11:12:00.859Z,52.05
2023-03-02T11:13:00.798Z,53.50
2023-03-02T11:14:00.658Z,52.05
2023-03-02T11:15:00.708Z,50.92
2023-03-02T11:16:00.724Z,54.46
2023-03-02T11:17:01.862Z,49.15
2023-03-02T11:18:00.758Z,49.63
2023-03-02T11:19:00.722Z,50.43
2023-03-02T11:20:00.576Z,52.05
2023-03-02T11:21:01.152Z,52.85
2023-03-02T11:22:00.605Z,49.15
2023-03-02T11:23:00.661Z,50.76
2023-03-02T11:24:00.727Z,50.92
2023-03-02T11:25:00.605Z,51.40
2023-03-02T11:26:00.682Z,50.92
2023-03-02T11:27:00.644Z,52.53
2023-03-02T11:28:00.497Z,50.76
2023-03-02T11:29:00.522Z,51.88
2023-03-02T11:30:00.549Z,50.76
2023-03-02T11:31:00.646Z,51.56
2023-03-02T11:32:00.489Z,53.50
2023-03-02T11:33:00.503Z,50.76
2023-03-02T11:34:07.813Z,50.76
2023-03-02T11:35:02.497Z,50.60
2023-03-02T11:36:00.498Z,49.79
2023-03-02T11:37:00.615Z,48.82
2023-03-02T11:38:00.463Z,48.50
2023-03-02T11:39:00.530Z,50.76
2023-03-02T11:40:00.527Z,50.92
2023-03-02T11:41:00.376Z,48.98
2023-03-02T11:42:00.695Z,49.15
2023-03-02T11:43:00.689Z,50.27
2023-03-02T11:44:01.010Z,50.11
2023-03-02T11:45:00.497Z,48.50
2023-03-02T11:46:00.562Z,49.79
2023-03-02T11:47:00.443Z,48.34
2023-03-02T11:48:03.539Z,49.15
2023-03-02T11:49:01.479Z,49.15
2023-03-02T11:50:00.414Z,47.70
2023-03-02T11:51:00.583Z,48.50
2023-03-02T11:52:00.454Z,48.66
2023-03-02T11:53:00.547Z,48.34
2023-03-02T11:54:00.587Z,47.37
2023-03-02T11:55:00.366Z,48.18
2023-03-02T11:56:00.299Z,47.37
2023-03-02T11:57:00.370Z,48.66
2023-03-02T11:59:00.350Z,49.15
2023-03-02T12:00:00.285Z,48.18
2023-03-02T12:01:00.275Z,47.05
2023-03-02T12:02:00.482Z,47.70
2023-03-02T12:03:00.311Z,49.79
2023-03-02T12:04:00.268Z,49.15
2023-03-02T12:05:00.304Z,48.66
2023-03-02T12:06:01.259Z,48.18
2023-03-02T12:07:00.215Z,48.18
2023-03-02T12:08:00.286Z,49.47
2023-03-02T12:09:00.356Z,49.15
2023-03-02T12:10:00.303Z,48.34
2023-03-02T12:11:00.191Z,48.66
2023-03-02T12:12:00.401Z,48.66
2023-03-02T12:13:00.383Z,48.82
2023-03-02T12:14:00.232Z,49.47
2023-03-02T12:15:00.269Z,48.34
2023-03-02T12:16:00.368Z,48.02
2023-03-02T12:17:00.152Z,48.66
2023-03-02T12:18:00.376Z,49.47
2023-03-02T12:19:00.223Z,50.27
2023-03-02T12:20:00.211Z,49.15
2023-03-02T12:21:00.250Z,49.63
2023-03-02T12:22:00.249Z,48.98
2023-03-02T12:23:00.682Z,48.66
2023-03-02T12:24:00.273Z,49.79
2023-03-02T12:25:00.124Z,47.86
2023-03-02T12:26:00.122Z,47.53
2023-03-02T12:27:00.142Z,51.08
2023-03-02T12:28:09.012Z,50.11
2023-03-02T12:29:00.118Z,48.98
2023-03-02T12:30:00.162Z,49.47
2023-03-02T12:31:00.130Z,48.50
2023-03-02T12:32:00.249Z,48.18
2023-03-02T12:33:00.029Z,47.53
2023-03-02T12:34:00.135Z,48.82
2023-03-02T12:35:00.089Z,47.53
2023-03-02T12:36:00.120Z,47.86
2023-03-02T12:37:00.245Z,48.18
2023-03-02T12:38:00.171Z,48.02
2023-03-02T12:39:00.210Z,47.37
2023-03-02T12:40:02.617Z,48.18
2023-03-02T12:41:01.055Z,47.53
2023-03-02T12:42:00.103Z,49.95
2023-03-02T12:43:00.171Z,47.37
2023-03-02T12:44:00.061Z,47.53
2023-03-02T12:45:00.116Z,49.15
2023-03-02T12:46:00.230Z,51.24
2023-03-02T12:47:01.020Z,49.79
2023-03-02T12:48:00.453Z,48.18
2023-03-02T12:49:00.238Z,49.31
2023-03-02T12:49:59.993Z,47.70
2023-03-02T12:51:00.398Z,47.53
2023-03-02T12:52:00.298Z,48.66
2023-03-02T12:53:00.078Z,49.63